KBAF/BAF METAR and TAF weather

Enter ICAO airport designator
Station Type Date Time Source
KBAF METAR 2018/07/21 03:53 UTC NOAA

KBAF 210353Z AUTO 17003KT 10SM CLR 18/14 A3014 RMK AO2 SLP204 T01830144


Station Type Date Time Source
KBAF Decoded METAR 2018/07/21 03:53 UTC NOAA

WESTFIELD BARNES MUNICIPAL, MA, United States (KBAF) 42-10N 072-43W 83M
Jul 20, 2018 - 11:53 PM EDT / 2018.07.21 0353 UTC
Wind: from the S (170 degrees) at 3 MPH (3 KT):0
Visibility: 10 mile(s):0
Sky conditions: clear
Temperature: 64.9 F (18.3 C)
Dew Point: 57.9 F (14.4 C)
Relative Humidity: 77%
Pressure (altimeter): 30.14 in. Hg (1020 hPa)
ob: KBAF 210353Z AUTO 17003KT 10SM CLR 18/14 A3014 RMK AO2 SLP204 T01830144
cycle: 4

Station Type Date Time Source
KBAF TAF 2018/07/21 03:21 UTC NOAA

TAF
AMD KBAF 210319Z 2103/2124 18004KT P6SM SKC
FM210700 00000KT 3SM BR BKN008
FM211200 00000KT P6SM FEW008
FM211500 10005KT P6SM FEW040
FM212100 11006KT P6SM BKN035


Example: see airport list